Time;durP1;ratioP1;P1;durP2;ratioP2;P2;SDS_P1;SDS_P2;PMS_P1;PMS_P2;Temp;Humidity;BMP_temperature;BMP_pressure;BME280_temperature;BME280_humidity;BME280_pressure;Samples;Min_cycle;Max_cycle;Signal;HPM_P1;HPM_P2
2023/08/02 00:01:09;;;;;;;9.60;7.60;;;;;;;16.64;100.00;100147.70;105654;1257;71815;-45
2023/08/02 00:03:36;;;;;;;9.10;7.40;;;;;;;16.67;100.00;100144.60;105533;1260;65627;-45
2023/08/02 00:06:03;;;;;;;15.00;8.10;;;;;;;16.75;100.00;100141.98;105731;1257;72635;-44
2023/08/02 00:08:30;;;;;;;11.10;7.80;;;;;;;16.83;100.00;100139.50;105609;1260;61968;-45
2023/08/02 00:10:57;;;;;;;9.90;7.60;;;;;;;16.87;100.00;100134.77;105571;1257;60022;-45
2023/08/02 00:13:23;;;;;;;8.30;6.90;;;;;;;16.88;100.00;100130.37;105629;1257;71855;-45
2023/08/02 00:15:51;;;;;;;14.10;8.00;;;;;;;16.86;100.00;100127.30;105568;1260;65957;-45
2023/08/02 00:18:18;;;;;;;11.20;7.90;;;;;;;16.82;100.00;100120.91;105598;1256;71357;-45
2023/08/02 00:20:45;;;;;;;9.80;7.60;;;;;;;16.79;100.00;100121.39;105593;1260;61832;-45
2023/08/02 00:23:12;;;;;;;9.40;8.20;;;;;;;16.77;100.00;100122.16;105611;1257;60326;-44
2023/08/02 00:25:39;;;;;;;14.40;8.00;;;;;;;16.77;100.00;100119.58;105719;1256;73018;-44
2023/08/02 00:28:06;;;;;;;13.00;7.80;;;;;;;16.77;100.00;100122.90;105730;1257;65453;-44
2023/08/02 00:30:44;;;;;;;13.20;7.60;;;;;;;16.79;100.00;100118.79;105668;1257;72799;-44
2023/08/02 00:33:11;;;;;;;12.40;6.60;;;;;;;16.78;100.00;100116.71;105534;1262;62077;-45
2023/08/02 00:35:43;;;;;;;9.50;6.80;;;;;;;16.71;100.00;100117.62;105652;1257;60269;-45
2023/08/02 00:38:10;;;;;;;9.60;6.60;;;;;;;16.63;100.00;100121.30;105572;1260;72792;-45
2023/08/02 00:40:38;;;;;;;9.10;6.70;;;;;;;16.55;100.00;100121.66;105567;1260;65602;-45
2023/08/02 00:43:04;;;;;;;7.30;6.30;;;;;;;16.47;100.00;100127.65;105537;1256;72521;-44
2023/08/02 00:45:32;;;;;;;8.10;6.40;;;;;;;16.37;100.00;100126.54;105612;1260;62032;-45
2023/08/02 00:47:59;;;;;;;9.40;6.90;;;;;;;16.30;100.00;100122.17;105619;1257;60228;-45
2023/08/02 00:50:30;;;;;;;9.10;6.80;;;;;;;16.25;100.00;100119.45;105602;1257;73004;-45
2023/08/02 00:52:57;;;;;;;12.40;8.10;;;;;;;16.21;100.00;100121.04;105386;1260;65575;-45
2023/08/02 00:55:24;;;;;;;14.70;7.90;;;;;;;16.21;100.00;100125.05;105431;1264;72505;-45
2023/08/02 00:57:51;;;;;;;12.90;7.90;;;;;;;16.20;100.00;100120.73;105643;1260;61919;-44
2023/08/02 01:00:18;;;;;;;8.00;7.20;;;;;;;16.18;100.00;100122.04;105565;1257;59720;-44
2023/08/02 01:02:45;;;;;;;8.40;7.70;;;;;;;16.15;100.00;100116.44;105575;1260;73048;-44
2023/08/02 01:05:13;;;;;;;12.80;8.50;;;;;;;16.14;100.00;100112.48;105600;1260;65807;-44
2023/08/02 01:07:52;;;;;;;14.60;9.60;;;;;;;16.18;100.00;100111.23;105679;1257;72633;-44
2023/08/02 01:10:45;;;;;;;8.40;6.80;;;;;;;16.28;100.00;100109.73;105641;1256;60081;-45
2023/08/02 01:13:14;;;;;;;9.60;7.80;;;;;;;16.28;100.00;100106.75;105580;1257;60470;-44
2023/08/02 01:15:41;;;;;;;10.40;8.20;;;;;;;16.24;100.00;100104.19;105616;1260;73091;-44
2023/08/02 01:18:08;;;;;;;14.10;7.50;;;;;;;16.26;100.00;100099.92;105509;1263;65294;-44
2023/08/02 01:20:35;;;;;;;10.00;7.30;;;;;;;16.28;100.00;100097.17;105552;1257;72675;-44
2023/08/02 01:23:03;;;;;;;8.90;7.80;;;;;;;16.26;100.00;100096.94;105594;1260;62008;-44
2023/08/02 01:25:31;;;;;;;7.90;7.10;;;;;;;16.25;100.00;100096.66;105719;1257;60415;-44
2023/08/02 01:28:04;;;;;;;6.70;5.90;;;;;;;16.21;100.00;100095.79;105575;1257;70802;-44
2023/08/02 01:30:36;;;;;;;7.40;6.30;;;;;;;16.13;100.00;100099.83;105580;1256;65512;-44
2023/08/02 01:33:04;;;;;;;5.70;5.20;;;;;;;16.04;100.00;100102.69;105603;1260;72626;-46
2023/08/02 01:35:31;;;;;;;5.50;5.00;;;;;;;15.96;100.00;100106.17;105517;1260;61912;-44
2023/08/02 01:37:58;;;;;;;6.10;5.30;;;;;;;15.90;100.00;100111.81;105182;1257;59608;-45
2023/08/02 01:40:25;;;;;;;5.60;5.10;;;;;;;15.84;100.00;100110.86;105437;1260;71784;-43
2023/08/02 01:42:51;;;;;;;6.00;5.50;;;;;;;15.79;100.00;100108.30;105587;1257;65336;-46
2023/08/02 01:45:18;;;;;;;6.10;5.10;;;;;;;15.73;100.00;100105.26;105649;1257;72659;-45
2023/08/02 01:47:47;;;;;;;10.50;5.20;;;;;;;15.69;100.00;100107.02;105701;1261;62008;-44
2023/08/02 01:50:14;;;;;;;6.80;5.30;;;;;;;15.63;100.00;100109.02;105589;1257;60171;-44
2023/08/02 01:52:42;;;;;;;7.30;6.60;;;;;;;15.58;100.00;100108.77;105581;1258;73032;-44
2023/08/02 01:55:09;;;;;;;10.00;6.10;;;;;;;15.55;100.00;100114.09;105571;1260;65332;-44
2023/08/02 01:57:36;;;;;;;5.20;4.90;;;;;;;15.52;100.00;100119.39;105598;1257;72674;-44
2023/08/02 02:00:04;;;;;;;6.40;5.90;;;;;;;15.49;100.00;100121.09;105470;1257;61819;-46
2023/08/02 02:02:39;;;;;;;8.20;6.60;;;;;;;15.46;100.00;100122.65;105785;1257;60322;-44
2023/08/02 02:05:07;;;;;;;7.00;6.10;;;;;;;15.47;100.00;100123.48;105434;1257;73059;-45
2023/08/02 02:07:34;;;;;;;8.90;6.70;;;;;;;15.47;100.00;100126.41;105556;1260;65482;-45
2023/08/02 02:10:01;;;;;;;7.90;6.80;;;;;;;15.43;100.00;100129.41;105547;1257;72629;-44
2023/08/02 02:12:28;;;;;;;6.80;6.10;;;;;;;15.39;100.00;100130.41;105644;1261;61707;-45
2023/08/02 02:14:55;;;;;;;12.40;6.70;;;;;;;15.37;100.00;100129.27;105568;1257;60334;-44
2023/08/02 02:17:22;;;;;;;12.10;8.30;;;;;;;15.34;100.00;100128.03;105433;1262;72904;-45
2023/08/02 02:19:49;;;;;;;10.00;8.00;;;;;;;15.30;100.00;100126.44;105600;1260;65574;-44
2023/08/02 02:22:16;;;;;;;9.90;8.00;;;;;;;15.27;100.00;100122.79;105509;1262;72612;-44
2023/08/02 02:24:44;;;;;;;8.80;7.80;;;;;;;15.22;100.00;100123.14;105747;1256;62035;-44
2023/08/02 02:27:11;;;;;;;7.50;6.70;;;;;;;15.19;100.00;100123.10;105598;1256;60450;-44
2023/08/02 02:29:38;;;;;;;10.30;7.70;;;;;;;15.19;100.00;100125.18;105585;1257;73780;-44
2023/08/02 02:32:05;;;;;;;8.90;8.00;;;;;;;15.19;100.00;100130.59;105692;1261;65436;-44
2023/08/02 02:34:33;;;;;;;8.00;7.20;;;;;;;15.19;100.00;100129.89;105619;1257;72389;-43
2023/08/02 02:37:00;;;;;;;8.50;7.70;;;;;;;15.21;100.00;100124.06;105633;1256;61669;-44
2023/08/02 02:39:28;;;;;;;9.20;8.00;;;;;;;15.24;100.00;100124.09;105731;1257;60476;-44
2023/08/02 02:41:55;;;;;;;9.30;8.10;;;;;;;15.29;100.00;100129.12;105599;1260;73787;-44
2023/08/02 02:44:22;;;;;;;7.90;7.20;;;;;;;15.32;100.00;100131.98;105612;1260;65432;-44
2023/08/02 02:46:48;;;;;;;11.70;8.40;;;;;;;15.35;100.00;100133.90;105729;1257;72681;-44
2023/08/02 02:49:15;;;;;;;9.50;8.40;;;;;;;15.36;100.00;100133.00;105598;1257;61946;-44
2023/08/02 02:51:42;;;;;;;13.20;8.70;;;;;;;15.35;100.00;100132.50;105593;1256;60437;-44
2023/08/02 02:54:09;;;;;;;9.80;8.40;;;;;;;15.37;100.00;100132.78;105720;1259;73897;-44
2023/08/02 02:56:36;;;;;;;10.10;9.20;;;;;;;15.37;100.00;100128.56;105588;1260;65494;-44
2023/08/02 02:59:03;;;;;;;9.00;8.20;;;;;;;15.40;100.00;100129.86;105600;1257;71500;-45
2023/08/02 03:01:30;;;;;;;8.60;7.90;;;;;;;15.42;100.00;100132.23;105561;1257;61821;-44
2023/08/02 03:03:57;;;;;;;8.70;8.00;;;;;;;15.44;100.00;100132.45;105615;1257;60463;-44
2023/08/02 03:06:24;;;;;;;10.60;8.40;;;;;;;15.47;100.00;100127.09;105572;1260;73939;-44
2023/08/02 03:08:51;;;;;;;8.10;7.30;;;;;;;15.54;100.00;100124.56;105809;1260;65295;-44
2023/08/02 03:11:18;;;;;;;9.90;8.90;;;;;;;15.64;100.00;100122.70;105637;1256;72641;-44
2023/08/02 03:13:45;;;;;;;13.30;9.90;;;;;;;15.77;100.00;100120.77;105586;1256;61752;-45
2023/08/02 03:16:12;;;;;;;12.70;9.40;;;;;;;15.89;100.00;100119.89;105827;1257;60559;-44
2023/08/02 03:18:39;;;;;;;12.50;9.50;;;;;;;15.97;100.00;100112.56;105420;1260;73795;-44
2023/08/02 03:21:05;;;;;;;15.70;9.80;;;;;;;16.06;100.00;100104.83;105341;1257;65477;-45
2023/08/02 03:23:35;;;;;;;12.00;9.70;;;;;;;16.19;100.00;100106.67;105593;1257;72521;-48
2023/08/02 03:26:02;;;;;;;10.30;9.30;;;;;;;16.31;100.00;100105.75;105634;1260;61842;-44
2023/08/02 03:28:29;;;;;;;15.20;10.10;;;;;;;16.41;100.00;100101.63;105618;1256;60470;-44
2023/08/02 03:30:56;;;;;;;13.00;9.00;;;;;;;16.52;100.00;100096.04;105701;1260;73779;-43
2023/08/02 03:33:23;;;;;;;15.70;9.50;;;;;;;16.65;100.00;100098.58;105575;1258;65528;-43
2023/08/02 03:35:50;;;;;;;16.40;8.70;;;;;;;16.77;100.00;100102.50;105553;1260;71063;-44
2023/08/02 03:38:17;;;;;;;10.20;8.80;;;;;;;16.88;100.00;100100.70;105678;1256;61931;-44
2023/08/02 03:40:44;;;;;;;9.70;8.60;;;;;;;17.02;100.00;100101.83;105634;1256;60539;-44
2023/08/02 03:43:11;;;;;;;15.90;8.10;;;;;;;17.15;100.00;100100.64;105628;1260;73874;-44
2023/08/02 03:45:38;;;;;;;13.30;8.70;;;;;;;17.26;100.00;100101.30;105679;1260;65295;-44
2023/08/02 03:48:05;;;;;;;9.90;8.20;;;;;;;17.36;100.00;100103.72;105645;1258;72592;-43
2023/08/02 03:50:33;;;;;;;9.90;8.00;;;;;;;17.47;100.00;100106.47;105609;1260;61802;-44
2023/08/02 03:53:00;;;;;;;8.60;7.30;;;;;;;17.58;100.00;100110.77;105900;1257;60418;-44
2023/08/02 03:55:27;;;;;;;8.70;7.20;;;;;;;17.70;100.00;100114.32;105571;1256;73646;-44
2023/08/02 03:57:53;;;;;;;12.00;6.60;;;;;;;17.87;100.00;100115.33;105615;1257;66799;-45
2023/08/02 04:00:20;;;;;;;7.00;5.80;;;;;;;18.12;100.00;100115.04;105540;1257;71709;-45
2023/08/02 04:02:47;;;;;;;6.80;5.90;;;;;;;18.46;100.00;100111.09;105843;1253;61727;-45
2023/08/02 04:05:15;;;;;;;6.10;5.60;;;;;;;18.81;100.00;100116.22;105840;1254;60530;-45
2023/08/02 04:07:43;;;;;;;8.80;5.80;;;;;;;19.18;100.00;100115.17;105965;1254;72622;-46
2023/08/02 04:10:11;;;;;;;7.70;5.30;;;;;;;19.51;100.00;100118.10;105906;1254;65456;-45
2023/08/02 04:12:38;;;;;;;5.70;5.30;;;;;;;19.84;100.00;100120.96;105871;1256;72633;-45
2023/08/02 04:15:06;;;;;;;5.70;5.20;;;;;;;20.16;100.00;100116.19;105859;1256;62546;-45
2023/08/02 04:17:33;;;;;;;7.60;5.40;;;;;;;20.48;100.00;100118.54;105865;1257;60427;-45
2023/08/02 04:20:01;;;;;;;5.70;5.30;;;;;;;20.80;100.00;100120.84;105956;1256;73810;-43
2023/08/02 04:22:31;;;;;;;10.10;5.80;;;;;;;21.15;100.00;100128.14;105872;1254;65516;-45
2023/08/02 04:24:58;;;;;;;8.80;5.40;;;;;;;21.48;100.00;100130.33;105837;1254;72683;-44
2023/08/02 04:27:25;;;;;;;6.40;5.20;;;;;;;21.75;100.00;100134.09;105815;1256;61815;-44
2023/08/02 04:29:53;;;;;;;6.50;5.70;;;;;;;22.00;100.00;100140.25;105856;1254;60541;-44
2023/08/02 04:32:19;;;;;;;8.00;5.20;;;;;;;22.24;100.00;100152.77;105822;1254;73683;-44
2023/08/02 04:34:47;;;;;;;5.70;5.20;;;;;;;22.47;100.00;100178.88;105858;1253;65355;-44
2023/08/02 04:37:14;;;;;;;5.50;4.90;;;;;;;22.67;100.00;100212.10;105882;1254;71647;-45
2023/08/02 04:39:41;;;;;;;6.30;5.40;;;;;;;22.90;100.00;100259.67;105862;1257;60351;-44
2023/08/02 04:42:08;;;;;;;11.80;6.50;;;;;;;23.04;100.00;100332.54;105877;1254;60300;-44
2023/08/02 04:44:35;;;;;;;7.80;5.00;;;;;;;23.16;100.00;100451.90;105879;1256;73929;-45
2023/08/02 04:47:02;;;;;;;8.90;5.60;;;;;;;23.30;100.00;100583.10;105840;1257;65372;-44
2023/08/02 04:49:29;;;;;;;6.10;5.40;;;;;;;23.45;100.00;100680.84;105895;1254;72590;-44
2023/08/02 04:51:55;;;;;;;10.10;6.30;;;;;;;23.61;100.00;100653.30;105799;1256;60504;-44
2023/08/02 04:54:22;;;;;;;7.00;6.10;;;;;;;23.79;100.00;100459.69;105862;1254;60306;-45
2023/08/02 04:56:50;;;;;;;7.40;6.60;;;;;;;23.98;100.00;100241.20;105879;1256;73685;-44
2023/08/02 04:59:17;;;;;;;9.80;6.20;;;;;;;24.22;100.00;100034.73;105864;1256;65763;-44
2023/08/02 05:01:44;;;;;;;6.50;5.90;;;;;;;24.45;100.00;99860.41;105824;1254;72666;-44
2023/08/02 05:04:13;;;;;;;9.90;6.30;;;;;;;24.70;100.00;99694.45;105899;1256;60537;-45
2023/08/02 05:06:40;;;;;;;7.40;6.40;;;;;;;24.84;100.00;99611.52;105912;1254;60411;-45
2023/08/02 05:09:07;;;;;;;9.10;6.90;;;;;;;24.96;100.00;99588.39;105864;1253;72498;-45
2023/08/02 05:11:34;;;;;;;7.70;6.90;;;;;;;25.14;100.00;99579.10;105848;1257;65464;-45
2023/08/02 05:14:01;;;;;;;9.60;7.90;;;;;;;25.30;100.00;99574.46;105847;1256;72496;-45
2023/08/02 05:16:28;;;;;;;11.10;7.80;;;;;;;25.41;100.00;99577.42;105843;1256;60668;-44
2023/08/02 05:18:55;;;;;;;10.30;7.70;;;;;;;25.55;100.00;99579.55;105906;1254;60692;-44
2023/08/02 05:21:25;;;;;;;10.90;7.40;;;;;;;25.74;100.00;99584.08;106020;1256;73758;-45
2023/08/02 05:23:52;;;;;;;12.20;7.50;;;;;;;25.93;100.00;99601.16;105863;1256;65337;-45
2023/08/02 05:26:22;;;;;;;15.70;7.30;;;;;;;26.14;100.00;99614.34;105858;1254;73182;-46
2023/08/02 05:28:48;;;;;;;11.40;7.50;;;;;;;26.32;100.00;99639.48;105868;1256;60578;-45
2023/08/02 05:31:15;;;;;;;9.20;7.20;;;;;;;26.50;100.00;99652.31;106010;1254;60473;-45
2023/08/02 05:33:46;;;;;;;9.40;7.40;;;;;;;26.65;100.00;99673.25;105860;1253;73811;-45
2023/08/02 05:36:14;;;;;;;9.60;7.40;;;;;;;26.81;100.00;99691.88;105855;1256;65285;-45
2023/08/02 05:38:41;;;;;;;9.10;6.50;;;;;;;26.94;100.00;99720.36;105883;1256;72605;-45
2023/08/02 05:41:08;;;;;;;12.90;6.80;;;;;;;27.04;100.00;99744.39;105970;1256;60478;-44
2023/08/02 05:43:36;;;;;;;8.00;6.10;;;;;;;26.94;100.00;99781.90;105894;1252;60607;-44
2023/08/02 05:46:03;;;;;;;12.10;6.10;;;;;;;26.73;100.00;99812.13;105869;1253;73706;-44
2023/08/02 05:48:30;;;;;;;9.30;5.90;;;;;;;26.58;100.00;99831.89;105726;1258;65573;-46
2023/08/02 05:50:57;;;;;;;7.50;5.90;;;;;;;26.69;100.00;99818.11;105687;1254;72972;-48
2023/08/02 05:53:24;;;;;;;14.90;5.90;;;;;;;26.94;100.00;99838.77;105867;1256;60431;-45
2023/08/02 05:55:51;;;;;;;8.60;6.00;;;;;;;27.07;100.00;99866.02;105638;1254;60731;-44
2023/08/02 05:58:18;;;;;;;10.90;5.40;;;;;;;27.05;100.00;99884.05;105657;1259;73719;-44
2023/08/02 06:00:46;;;;;;;10.80;6.70;;;;;;;26.92;100.00;99909.02;105854;1257;65496;-44
2023/08/02 06:03:12;;;;;;;6.10;5.20;;;;;;;26.91;100.00;99906.95;105973;1254;72522;-44
2023/08/02 06:05:39;;;;;;;5.90;5.10;;;;;;;26.94;100.00;99906.13;105863;1256;60529;-45
2023/08/02 06:08:06;;;;;;;7.60;6.10;;;;;;;26.74;100.00;99933.16;105850;1254;60590;-43
2023/08/02 06:10:34;;;;;;;7.90;5.90;;;;;;;26.50;100.00;99927.63;105882;1255;73872;-44
2023/08/02 06:13:01;;;;;;;5.80;5.30;;;;;;;26.28;100.00;99917.82;105853;1257;65925;-45
2023/08/02 06:15:29;;;;;;;6.40;5.80;;;;;;;26.07;100.00;99906.30;105819;1254;73036;-46
2023/08/02 06:17:56;;;;;;;6.10;5.60;;;;;;;25.80;100.00;99902.77;105835;1257;60335;-46
2023/08/02 06:20:23;;;;;;;5.50;4.90;;;;;;;25.52;100.00;99909.35;105976;1254;60395;-44
2023/08/02 06:22:50;;;;;;;6.00;5.10;;;;;;;25.39;100.00;99898.09;105842;1254;73779;-44
2023/08/02 06:25:17;;;;;;;4.70;4.20;;;;;;;25.31;100.00;99900.78;105861;1257;64513;-44
2023/08/02 06:27:44;;;;;;;5.40;5.00;;;;;;;25.20;100.00;99896.74;105831;1260;72534;-44
2023/08/02 06:30:13;;;;;;;6.10;5.50;;;;;;;25.26;100.00;99893.11;105846;1259;60428;-44
2023/08/02 06:32:40;;;;;;;11.60;5.20;;;;;;;25.35;100.00;99893.17;105857;1259;60523;-44
2023/08/02 06:35:08;;;;;;;5.70;5.10;;;;;;;25.40;100.00;99895.89;105808;1257;73858;-44
2023/08/02 06:37:34;;;;;;;5.80;5.30;;;;;;;25.46;100.00;99897.52;105809;1257;65397;-45
2023/08/02 06:40:03;;;;;;;5.90;5.40;;;;;;;25.46;100.00;99899.94;105878;1253;72715;-44
2023/08/02 06:42:30;;;;;;;5.70;5.30;;;;;;;25.48;100.00;99898.57;105832;1258;60520;-45
2023/08/02 06:44:57;;;;;;;6.20;5.60;;;;;;;25.59;100.00;99883.98;105777;1254;60588;-45
2023/08/02 06:47:25;;;;;;;7.00;6.20;;;;;;;25.67;100.00;99882.34;105909;1254;73811;-45
2023/08/02 06:49:52;;;;;;;6.60;6.00;;;;;;;25.63;100.00;99888.80;105866;1259;65553;-45
2023/08/02 06:52:19;;;;;;;7.30;6.60;;;;;;;25.51;100.00;99895.29;105834;1254;72624;-45
2023/08/02 06:54:46;;;;;;;7.40;6.10;;;;;;;25.57;100.00;99873.58;105785;1254;61939;-44
2023/08/02 06:57:13;;;;;;;7.20;6.60;;;;;;;25.67;100.00;99875.85;105892;1254;60405;-45
2023/08/02 06:59:40;;;;;;;6.90;6.20;;;;;;;25.71;100.00;99864.58;105809;1257;73509;-45
2023/08/02 07:02:07;;;;;;;6.90;6.30;;;;;;;25.82;100.00;99859.84;105941;1257;65501;-44
2023/08/02 07:04:34;;;;;;;6.90;6.20;;;;;;;25.92;100.00;99861.24;105813;1259;72352;-45
2023/08/02 07:07:01;;;;;;;7.40;6.80;;;;;;;25.96;100.00;99862.96;105718;1257;61925;-45
2023/08/02 07:09:29;;;;;;;13.20;6.90;;;;;;;25.99;100.00;99871.48;105777;1257;60536;-46
2023/08/02 07:11:57;;;;;;;7.20;6.60;;;;;;;26.04;100.00;99885.42;105839;1256;73708;-44
2023/08/02 07:14:23;;;;;;;8.10;7.10;;;;;;;26.04;100.00;99903.60;105768;1257;65393;-45
2023/08/02 07:16:50;;;;;;;8.30;6.30;;;;;;;26.04;100.00;99919.31;105782;1257;72649;-45
2023/08/02 07:19:17;;;;;;;8.90;6.60;;;;;;;26.20;100.00;99922.98;105820;1257;60348;-45
2023/08/02 07:21:44;;;;;;;13.20;6.20;;;;;;;26.31;100.00;99923.98;105838;1254;60440;-45
2023/08/02 07:24:11;;;;;;;22.20;6.10;;;;;;;26.24;100.00;99933.77;105850;1254;73795;-45
2023/08/02 07:26:39;;;;;;;8.60;5.40;;;;;;;26.27;100.00;99955.36;105932;1256;65460;-45
2023/08/02 07:29:06;;;;;;;5.90;4.90;;;;;;;26.44;100.00;99943.58;105862;1254;72620;-45
2023/08/02 07:31:33;;;;;;;4.50;4.10;;;;;;;26.50;97.40;99934.73;105832;1257;60439;-46
2023/08/02 07:33:59;;;;;;;4.40;4.20;;;;;;;26.56;99.39;99961.72;105858;1254;60450;-45
2023/08/02 07:36:26;;;;;;;5.20;4.00;;;;;;;26.66;90.74;99933.96;105830;1255;73814;-46
2023/08/02 07:38:53;;;;;;;4.20;3.90;;;;;;;26.76;91.15;99954.73;105755;1257;65598;-45
2023/08/02 07:41:20;;;;;;;4.10;3.70;;;;;;;26.90;87.63;99937.86;105835;1254;73225;-46
2023/08/02 07:43:49;;;;;;;5.10;3.60;;;;;;;26.96;81.60;99910.92;105801;1260;60578;-45
2023/08/02 07:46:19;;;;;;;4.10;3.90;;;;;;;27.06;80.77;99924.40;105797;1254;60409;-45
2023/08/02 07:48:47;;;;;;;3.60;3.40;;;;;;;27.21;81.52;99944.66;105954;1257;73840;-46
2023/08/02 07:51:14;;;;;;;4.00;3.20;;;;;;;27.39;82.49;99955.84;105829;1257;65500;-46
2023/08/02 07:53:41;;;;;;;3.30;3.00;;;;;;;27.60;78.24;99909.25;105746;1254;72471;-46
2023/08/02 07:56:08;;;;;;;3.60;3.30;;;;;;;27.70;74.99;99890.34;105826;1266;60344;-45
2023/08/02 07:58:35;;;;;;;3.60;3.30;;;;;;;27.75;72.66;99878.13;106037;1253;60453;-46
2023/08/02 08:01:08;;;;;;;3.60;3.40;;;;;;;27.80;73.35;99913.11;105805;1257;73663;-45
2023/08/02 08:03:35;;;;;;;4.20;3.00;;;;;;;27.90;69.56;99852.70;105929;1258;65385;-45
2023/08/02 08:06:15;;;;;;;3.10;2.90;;;;;;;27.90;68.94;99865.65;105931;1256;72896;-45
2023/08/02 08:08:43;;;;;;;4.50;3.00;;;;;;;27.86;68.63;99872.08;105878;1254;60463;-45
2023/08/02 08:11:10;;;;;;;3.10;2.90;;;;;;;28.01;70.28;99914.03;105958;1254;60476;-44
2023/08/02 08:13:37;;;;;;;3.40;3.20;;;;;;;28.20;67.48;99853.42;105979;1254;72588;-45
2023/08/02 08:16:04;;;;;;;3.50;3.10;;;;;;;28.20;67.88;99881.08;106003;1260;65490;-49
2023/08/02 08:18:32;;;;;;;3.50;3.20;;;;;;;28.37;70.66;99937.80;106091;1257;72633;-43
2023/08/02 08:20:59;;;;;;;3.40;3.20;;;;;;;28.54;66.37;99843.88;105823;1257;60412;-45
2023/08/02 08:23:27;;;;;;;4.10;3.20;;;;;;;28.48;66.75;99874.14;105835;1253;60418;-45
2023/08/02 08:25:54;;;;;;;3.70;3.10;;;;;;;28.44;65.26;99842.79;105794;1260;73764;-46
2023/08/02 08:28:21;;;;;;;3.70;3.20;;;;;;;28.39;64.23;99827.86;105828;1257;65548;-46
2023/08/02 08:30:48;;;;;;;3.10;3.00;;;;;;;28.46;67.13;99904.93;105908;1259;73616;-45
2023/08/02 08:33:14;;;;;;;3.00;2.90;;;;;;;28.58;64.12;99832.55;105898;1258;60975;-47
2023/08/02 08:35:42;;;;;;;3.60;3.30;;;;;;;28.64;66.95;99903.55;105800;1254;60530;-46
2023/08/02 08:38:09;;;;;;;6.20;3.30;;;;;;;28.85;64.28;99835.39;105914;1256;73583;-46
2023/08/02 08:40:36;;;;;;;5.60;3.30;;;;;;;28.97;64.15;99833.62;105966;1257;65489;-47
2023/08/02 08:43:03;;;;;;;4.20;3.30;;;;;;;28.95;62.34;99791.02;105813;1258;72699;-46
2023/08/02 08:45:30;;;;;;;4.60;3.00;;;;;;;28.94;63.54;99836.55;105768;1257;60437;-47
2023/08/02 08:47:57;;;;;;;3.20;3.10;;;;;;;29.17;65.52;99893.64;106004;1259;60409;-44
2023/08/02 08:50:24;;;;;;;3.30;3.10;;;;;;;29.46;62.22;99801.30;105639;1255;73701;-45
2023/08/02 08:52:51;;;;;;;3.10;3.00;;;;;;;29.58;62.73;99826.27;105671;1262;65442;-45
2023/08/02 08:55:19;;;;;;;3.60;3.20;;;;;;;29.73;62.01;99803.25;105977;1258;72653;-44
2023/08/02 08:57:46;;;;;;;4.40;3.00;;;;;;;29.89;63.70;99861.07;105917;1257;60440;-45
2023/08/02 09:00:16;;;;;;;3.60;3.20;;;;;;;30.10;60.33;99759.05;105803;1257;60399;-45
2023/08/02 09:02:43;;;;;;;7.10;3.10;;;;;;;30.06;59.24;99732.63;106024;1255;73623;-47
2023/08/02 09:05:11;;;;;;;3.90;3.10;;;;;;;29.95;59.69;99773.20;105849;1258;65302;-46
2023/08/02 09:07:38;;;;;;;3.10;2.90;;;;;;;29.94;58.82;99741.98;105808;1257;72458;-45
2023/08/02 09:10:06;;;;;;;3.30;3.10;;;;;;;29.83;57.52;99696.41;105963;1257;60427;-46
2023/08/02 09:12:44;;;;;;;3.30;3.10;;;;;;;29.72;57.76;99726.96;105977;1257;60334;-44
2023/08/02 09:15:13;;;;;;;3.30;3.10;;;;;;;29.73;57.90;99742.52;105842;1257;72387;-45
2023/08/02 09:17:51;;;;;;;9.10;3.30;;;;;;;29.71;56.52;99681.56;105890;1257;65592;-45
2023/08/02 09:20:20;;;;;;;3.20;3.00;;;;;;;29.84;57.92;99761.35;105895;1256;72626;-45
2023/08/02 09:22:47;;;;;;;3.30;3.00;;;;;;;30.08;55.82;99654.40;105918;1257;60406;-45
2023/08/02 09:25:28;;;;;;;3.10;2.90;;;;;;;30.17;56.69;99699.83;105890;1254;60440;-45
2023/08/02 09:27:56;;;;;;;3.00;2.90;;;;;;;30.34;55.49;99644.17;106030;1256;72541;-45
2023/08/02 09:30:32;;;;;;;3.40;3.20;;;;;;;30.42;55.14;99636.30;105906;1257;65958;-46
2023/08/02 09:33:00;;;;;;;3.80;3.40;;;;;;;30.40;54.50;99605.68;105869;1254;71746;-45
2023/08/02 09:35:27;;;;;;;3.20;3.00;;;;;;;30.39;54.75;99637.14;105889;1256;60441;-45
2023/08/02 09:37:54;;;;;;;2.70;2.60;;;;;;;30.50;55.57;99691.46;105880;1257;61007;-45
2023/08/02 09:40:34;;;;;;;4.10;3.10;;;;;;;30.62;54.68;99640.61;105855;1255;73858;-46
2023/08/02 09:43:02;;;;;;;3.00;2.80;;;;;;;30.64;54.18;99620.93;105852;1257;65424;-45
2023/08/02 09:45:32;;;;;;;4.20;2.80;;;;;;;30.65;54.82;99674.59;105884;1256;71281;-46
2023/08/02 09:48:00;;;;;;;2.80;2.50;;;;;;;30.68;56.14;99747.58;105899;1257;60447;-46
2023/08/02 09:50:28;;;;;;;4.70;2.90;;;;;;;30.88;55.95;99724.41;105894;1252;60457;-46
2023/08/02 09:52:54;;;;;;;3.30;3.00;;;;;;;31.17;54.25;99622.38;106052;1256;74102;-45
2023/08/02 09:55:22;;;;;;;3.10;2.50;;;;;;;31.30;54.08;99614.88;105842;1257;65534;-46
2023/08/02 09:57:49;;;;;;;3.10;2.90;;;;;;;31.21;52.46;99527.77;105983;1257;72638;-46
2023/08/02 10:00:17;;;;;;;3.20;2.50;;;;;;;31.08;53.74;99633.49;105861;1256;60297;-46
2023/08/02 10:02:46;;;;;;;9.20;3.00;;;;;;;30.91;54.04;99659.67;106084;1254;60543;-45
2023/08/02 10:05:13;;;;;;;3.10;2.60;;;;;;;30.70;53.87;99658.14;105866;1253;73655;-46
2023/08/02 10:07:48;;;;;;;3.10;2.90;;;;;;;30.56;54.31;99689.64;105745;1259;65295;-45
2023/08/02 10:10:31;;;;;;;3.30;3.10;;;;;;;30.73;54.94;99716.05;105899;1252;72519;-46
2023/08/02 10:13:05;;;;;;;2.90;2.80;;;;;;;31.06;55.17;99718.30;105847;1258;60549;-46
2023/08/02 10:15:32;;;;;;;4.50;2.80;;;;;;;31.44;54.50;99645.90;105862;1254;60514;-47
2023/08/02 10:17:59;;;;;;;2.70;2.60;;;;;;;31.78;53.76;99604.67;105830;1256;74223;-46
2023/08/02 10:20:27;;;;;;;3.40;2.90;;;;;;;31.97;52.49;99519.66;105636;1257;65385;-46
2023/08/02 10:22:54;;;;;;;4.10;2.70;;;;;;;32.07;51.74;99484.15;105854;1255;72493;-46
2023/08/02 10:25:21;;;;;;;3.40;2.70;;;;;;;32.06;51.26;99447.17;105610;1260;60410;-46
2023/08/02 10:27:48;;;;;;;9.70;2.70;;;;;;;32.22;52.59;99572.60;105926;1252;60556;-46
2023/08/02 10:30:16;;;;;;;2.80;2.60;;;;;;;32.62;51.90;99495.66;105474;1252;74352;-46
2023/08/02 10:33:48;;;;;;;3.10;2.70;;;;;;;33.12;51.60;99491.85;103381;1283;616421;-46
2023/08/02 10:36:15;;;;;;;3.80;2.60;;;;;;;33.30;49.06;99245.98;104996;1269;60399;-46
2023/08/02 10:38:42;;;;;;;3.60;2.60;;;;;;;33.35;48.42;99229.19;104930;1267;60293;-47
2023/08/02 10:41:10;;;;;;;3.50;2.20;;;;;;;33.39;47.47;99162.17;105050;1265;72171;-47
2023/08/02 10:43:55;;;;;;;2.60;2.40;;;;;;;33.15;47.53;99176.60;105133;1269;65527;-45
2023/08/02 10:46:26;;;;;;;6.60;2.30;;;;;;;32.89;48.00;99241.80;105068;1264;246123;-45
2023/08/02 10:48:54;;;;;;;2.50;2.40;;;;;;;32.81;48.24;99283.75;105402;1260;59401;-46
2023/08/02 10:51:27;;;;;;;3.80;2.50;;;;;;;32.82;48.72;99366.83;105399;1263;59362;-45
2023/08/02 10:54:09;;;;;;;2.50;2.30;;;;;;;32.85;47.38;99218.98;105383;1260;72209;-46
2023/08/02 10:56:51;;;;;;;2.50;2.40;;;;;;;32.77;48.60;99351.58;105437;1263;65451;-45
2023/08/02 10:59:25;;;;;;;4.40;2.20;;;;;;;32.78;49.28;99423.97;105313;1263;72780;-45
2023/08/02 11:02:02;;;;;;;5.00;2.20;;;;;;;32.61;48.98;99400.85;105392;1263;60238;-45
2023/08/02 11:04:30;;;;;;;7.80;3.00;;;;;;;32.30;47.91;99326.36;105244;1261;60271;-46
2023/08/02 11:07:21;;;;;;;2.30;2.10;;;;;;;31.94;47.44;99280.66;105247;1261;72851;-46
2023/08/02 11:09:51;;;;;;;5.80;2.10;;;;;;;31.47;47.92;99373.50;105294;1265;65497;-46
2023/08/02 11:12:20;;;;;;;5.10;1.90;;;;;;;31.33;48.17;99398.33;105339;1264;72654;-45
2023/08/02 11:14:51;;;;;;;2.80;1.90;;;;;;;31.29;48.38;99408.85;105246;1264;60188;-45
2023/08/02 11:17:19;;;;;;;2.80;2.00;;;;;;;31.36;48.14;99401.89;105229;1261;60328;-45
2023/08/02 11:19:59;;;;;;;2.50;2.40;;;;;;;31.41;46.97;99263.40;105168;1261;72965;-46